sensor_id;sensor_type;location;lat;lon;timestamp;P1;durP1;ratioP1;P2;durP2;ratioP2
77324;SDS011;66387;53.440;10.390;2022-12-29T00:02:07;3.88;;;2.90;;
77324;SDS011;66387;53.440;10.390;2022-12-29T00:04:32;4.73;;;3.60;;
77324;SDS011;66387;53.440;10.390;2022-12-29T00:06:57;3.30;;;2.95;;
77324;SDS011;66387;53.440;10.390;2022-12-29T00:09:23;5.13;;;3.27;;
77324;SDS011;66387;53.440;10.390;2022-12-29T00:11:48;4.47;;;3.60;;
77324;SDS011;66387;53.440;10.390;2022-12-29T00:14:15;4.97;;;3.53;;
77324;SDS011;66387;53.440;10.390;2022-12-29T00:16:59;3.22;;;2.88;;
77324;SDS011;66387;53.440;10.390;2022-12-29T00:19:24;4.88;;;3.17;;
77324;SDS011;66387;53.440;10.390;2022-12-29T00:22:09;5.22;;;3.45;;
77324;SDS011;66387;53.440;10.390;2022-12-29T00:24:54;5.18;;;4.03;;
77324;SDS011;66387;53.440;10.390;2022-12-29T00:27:20;4.35;;;3.80;;
77324;SDS011;66387;53.440;10.390;2022-12-29T00:30:10;4.80;;;3.45;;
77324;SDS011;66387;53.440;10.390;2022-12-29T00:32:56;3.95;;;3.00;;
77324;SDS011;66387;53.440;10.390;2022-12-29T00:35:50;5.00;;;3.10;;
77324;SDS011;66387;53.440;10.390;2022-12-29T00:38:18;4.60;;;3.70;;
77324;SDS011;66387;53.440;10.390;2022-12-29T00:41:02;4.13;;;3.65;;
77324;SDS011;66387;53.440;10.390;2022-12-29T00:43:46;5.20;;;3.42;;
77324;SDS011;66387;53.440;10.390;2022-12-29T00:46:29;7.43;;;4.07;;
77324;SDS011;66387;53.440;10.390;2022-12-29T00:48:55;5.22;;;4.00;;
77324;SDS011;66387;53.440;10.390;2022-12-29T00:51:39;4.60;;;3.25;;
77324;SDS011;66387;53.440;10.390;2022-12-29T00:54:05;4.90;;;3.43;;
77324;SDS011;66387;53.440;10.390;2022-12-29T00:56:30;4.27;;;3.27;;
77324;SDS011;66387;53.440;10.390;2022-12-29T00:58:55;4.13;;;3.70;;
77324;SDS011;66387;53.440;10.390;2022-12-29T01:01:25;5.38;;;3.65;;
77324;SDS011;66387;53.440;10.390;2022-12-29T01:03:50;4.13;;;3.03;;
77324;SDS011;66387;53.440;10.390;2022-12-29T01:06:15;4.57;;;3.30;;
77324;SDS011;66387;53.440;10.390;2022-12-29T01:08:40;5.80;;;3.10;;
77324;SDS011;66387;53.440;10.390;2022-12-29T01:11:07;3.30;;;3.00;;
77324;SDS011;66387;53.440;10.390;2022-12-29T01:13:33;4.07;;;3.70;;
77324;SDS011;66387;53.440;10.390;2022-12-29T01:15:59;5.13;;;3.25;;
77324;SDS011;66387;53.440;10.390;2022-12-29T01:18:25;4.87;;;3.47;;
77324;SDS011;66387;53.440;10.390;2022-12-29T01:20:50;3.83;;;3.05;;
77324;SDS011;66387;53.440;10.390;2022-12-29T01:23:23;2.92;;;2.60;;
77324;SDS011;66387;53.440;10.390;2022-12-29T01:25:48;4.10;;;3.03;;
77324;SDS011;66387;53.440;10.390;2022-12-29T01:28:14;3.87;;;3.20;;
77324;SDS011;66387;53.440;10.390;2022-12-29T01:30:39;4.40;;;3.33;;
77324;SDS011;66387;53.440;10.390;2022-12-29T01:33:04;3.33;;;2.10;;
77324;SDS011;66387;53.440;10.390;2022-12-29T01:35:29;4.03;;;3.10;;
77324;SDS011;66387;53.440;10.390;2022-12-29T01:37:55;4.53;;;3.50;;
77324;SDS011;66387;53.440;10.390;2022-12-29T01:40:20;4.03;;;2.97;;
77324;SDS011;66387;53.440;10.390;2022-12-29T01:42:45;4.33;;;3.43;;
77324;SDS011;66387;53.440;10.390;2022-12-29T01:45:14;3.83;;;2.93;;
77324;SDS011;66387;53.440;10.390;2022-12-29T01:47:51;3.70;;;2.90;;
77324;SDS011;66387;53.440;10.390;2022-12-29T01:50:22;4.25;;;2.97;;
77324;SDS011;66387;53.440;10.390;2022-12-29T01:55:58;3.58;;;3.17;;
77324;SDS011;66387;53.440;10.390;2022-12-29T01:58:26;4.75;;;3.88;;
77324;SDS011;66387;53.440;10.390;2022-12-29T02:00:55;5.43;;;3.80;;
77324;SDS011;66387;53.440;10.390;2022-12-29T02:03:21;3.72;;;2.83;;
77324;SDS011;66387;53.440;10.390;2022-12-29T02:05:54;3.72;;;3.28;;
77324;SDS011;66387;53.440;10.390;2022-12-29T02:08:24;4.75;;;3.05;;
77324;SDS011;66387;53.440;10.390;2022-12-29T02:10:53;3.42;;;2.80;;
77324;SDS011;66387;53.440;10.390;2022-12-29T02:13:19;3.45;;;2.70;;
77324;SDS011;66387;53.440;10.390;2022-12-29T02:30:04;3.10;;;2.80;;
77324;SDS011;66387;53.440;10.390;2022-12-29T02:38:19;2.38;;;2.15;;
77324;SDS011;66387;53.440;10.390;2022-12-29T02:40:55;4.10;;;2.75;;
77324;SDS011;66387;53.440;10.390;2022-12-29T02:43:45;4.28;;;2.85;;
77324;SDS011;66387;53.440;10.390;2022-12-29T02:46:25;4.60;;;2.90;;
77324;SDS011;66387;53.440;10.390;2022-12-29T02:51:55;2.92;;;2.30;;
77324;SDS011;66387;53.440;10.390;2022-12-29T02:54:25;4.35;;;3.00;;
77324;SDS011;66387;53.440;10.390;2022-12-29T02:57:13;3.63;;;3.15;;
77324;SDS011;66387;53.440;10.390;2022-12-29T02:59:52;3.92;;;3.00;;
77324;SDS011;66387;53.440;10.390;2022-12-29T03:05:29;3.10;;;2.78;;
77324;SDS011;66387;53.440;10.390;2022-12-29T03:08:34;3.25;;;2.33;;
77324;SDS011;66387;53.440;10.390;2022-12-29T03:11:10;3.53;;;2.78;;
77324;SDS011;66387;53.440;10.390;2022-12-29T03:13:57;4.53;;;3.00;;
77324;SDS011;66387;53.440;10.390;2022-12-29T03:16:47;2.88;;;2.15;;
77324;SDS011;66387;53.440;10.390;2022-12-29T03:19:25;3.35;;;2.80;;
77324;SDS011;66387;53.440;10.390;2022-12-29T03:24:45;3.17;;;2.13;;
77324;SDS011;66387;53.440;10.390;2022-12-29T03:27:16;2.38;;;2.10;;
77324;SDS011;66387;53.440;10.390;2022-12-29T03:29:51;3.17;;;2.63;;
77324;SDS011;66387;53.440;10.390;2022-12-29T03:32:20;3.15;;;2.08;;
77324;SDS011;66387;53.440;10.390;2022-12-29T03:34:48;2.22;;;1.92;;
77324;SDS011;66387;53.440;10.390;2022-12-29T03:37:16;2.63;;;1.90;;
77324;SDS011;66387;53.440;10.390;2022-12-29T03:39:45;2.28;;;1.92;;
77324;SDS011;66387;53.440;10.390;2022-12-29T03:42:14;2.50;;;2.30;;
77324;SDS011;66387;53.440;10.390;2022-12-29T03:44:43;2.22;;;1.67;;
77324;SDS011;66387;53.440;10.390;2022-12-29T03:47:10;2.55;;;1.80;;
77324;SDS011;66387;53.440;10.390;2022-12-29T03:49:37;2.00;;;1.60;;
77324;SDS011;66387;53.440;10.390;2022-12-29T03:52:02;3.53;;;1.95;;
77324;SDS011;66387;53.440;10.390;2022-12-29T03:54:28;2.17;;;1.40;;
77324;SDS011;66387;53.440;10.390;2022-12-29T03:56:54;2.22;;;1.73;;
77324;SDS011;66387;53.440;10.390;2022-12-29T03:59:19;3.13;;;1.67;;
77324;SDS011;66387;53.440;10.390;2022-12-29T04:01:44;2.13;;;1.63;;
77324;SDS011;66387;53.440;10.390;2022-12-29T04:04:09;2.03;;;1.67;;
77324;SDS011;66387;53.440;10.390;2022-12-29T04:06:35;2.53;;;2.07;;
77324;SDS011;66387;53.440;10.390;2022-12-29T04:09:00;2.60;;;1.67;;
77324;SDS011;66387;53.440;10.390;2022-12-29T04:11:26;2.55;;;1.85;;
77324;SDS011;66387;53.440;10.390;2022-12-29T04:13:51;1.73;;;0.97;;
77324;SDS011;66387;53.440;10.390;2022-12-29T04:16:16;2.67;;;1.70;;
77324;SDS011;66387;53.440;10.390;2022-12-29T04:18:41;1.63;;;1.50;;
77324;SDS011;66387;53.440;10.390;2022-12-29T04:21:07;2.67;;;1.77;;
77324;SDS011;66387;53.440;10.390;2022-12-29T04:23:34;1.93;;;1.37;;
77324;SDS011;66387;53.440;10.390;2022-12-29T04:26:01;1.48;;;1.23;;
77324;SDS011;66387;53.440;10.390;2022-12-29T04:28:26;2.38;;;1.40;;
77324;SDS011;66387;53.440;10.390;2022-12-29T04:30:52;1.80;;;1.40;;
77324;SDS011;66387;53.440;10.390;2022-12-29T04:33:17;1.60;;;1.50;;
77324;SDS011;66387;53.440;10.390;2022-12-29T04:35:43;2.30;;;1.60;;
77324;SDS011;66387;53.440;10.390;2022-12-29T04:38:08;2.33;;;1.38;;
77324;SDS011;66387;53.440;10.390;2022-12-29T04:40:34;1.88;;;1.40;;
77324;SDS011;66387;53.440;10.390;2022-12-29T04:43:00;3.70;;;1.73;;
77324;SDS011;66387;53.440;10.390;2022-12-29T04:45:25;1.77;;;1.60;;
77324;SDS011;66387;53.440;10.390;2022-12-29T04:47:50;2.73;;;1.53;;
77324;SDS011;66387;53.440;10.390;2022-12-29T04:50:16;2.37;;;1.47;;
77324;SDS011;66387;53.440;10.390;2022-12-29T04:52:41;4.60;;;1.83;;
77324;SDS011;66387;53.440;10.390;2022-12-29T04:55:06;2.93;;;1.60;;
77324;SDS011;66387;53.440;10.390;2022-12-29T04:57:32;2.15;;;1.45;;
77324;SDS011;66387;53.440;10.390;2022-12-29T04:59:57;2.97;;;1.60;;
77324;SDS011;66387;53.440;10.390;2022-12-29T05:02:23;2.73;;;0.93;;
77324;SDS011;66387;53.440;10.390;2022-12-29T05:04:48;1.63;;;1.48;;
77324;SDS011;66387;53.440;10.390;2022-12-29T05:07:14;2.10;;;1.60;;
77324;SDS011;66387;53.440;10.390;2022-12-29T05:09:39;2.80;;;1.70;;
77324;SDS011;66387;53.440;10.390;2022-12-29T05:12:04;2.00;;;1.60;;
77324;SDS011;66387;53.440;10.390;2022-12-29T05:14:30;2.28;;;1.88;;
77324;SDS011;66387;53.440;10.390;2022-12-29T05:16:55;3.50;;;1.60;;
77324;SDS011;66387;53.440;10.390;2022-12-29T05:19:20;3.43;;;2.00;;
77324;SDS011;66387;53.440;10.390;2022-12-29T05:21:46;2.20;;;1.60;;
77324;SDS011;66387;53.440;10.390;2022-12-29T05:24:11;2.33;;;1.87;;
77324;SDS011;66387;53.440;10.390;2022-12-29T05:26:36;2.17;;;1.58;;
77324;SDS011;66387;53.440;10.390;2022-12-29T05:29:02;3.30;;;2.20;;
77324;SDS011;66387;53.440;10.390;2022-12-29T05:31:27;1.85;;;1.58;;
77324;SDS011;66387;53.440;10.390;2022-12-29T05:33:52;2.97;;;1.80;;
77324;SDS011;66387;53.440;10.390;2022-12-29T05:36:18;1.57;;;1.40;;
77324;SDS011;66387;53.440;10.390;2022-12-29T05:38:43;2.47;;;1.80;;
77324;SDS011;66387;53.440;10.390;2022-12-29T05:41:09;1.95;;;1.60;;
77324;SDS011;66387;53.440;10.390;2022-12-29T05:43:34;3.17;;;1.55;;
77324;SDS011;66387;53.440;10.390;2022-12-29T05:45:59;1.30;;;1.20;;
77324;SDS011;66387;53.440;10.390;2022-12-29T05:48:25;1.83;;;1.38;;
77324;SDS011;66387;53.440;10.390;2022-12-29T05:50:50;1.70;;;1.47;;
77324;SDS011;66387;53.440;10.390;2022-12-29T05:53:16;1.58;;;1.33;;
77324;SDS011;66387;53.440;10.390;2022-12-29T05:55:43;2.38;;;1.50;;
77324;SDS011;66387;53.440;10.390;2022-12-29T05:58:09;2.88;;;1.42;;
77324;SDS011;66387;53.440;10.390;2022-12-29T06:00:35;1.02;;;0.93;;
77324;SDS011;66387;53.440;10.390;2022-12-29T06:03:00;1.60;;;1.20;;
77324;SDS011;66387;53.440;10.390;2022-12-29T06:05:25;1.97;;;1.13;;
77324;SDS011;66387;53.440;10.390;2022-12-29T06:07:50;1.58;;;1.45;;
77324;SDS011;66387;53.440;10.390;2022-12-29T06:10:16;1.50;;;1.30;;
77324;SDS011;66387;53.440;10.390;2022-12-29T06:12:41;2.05;;;1.45;;
77324;SDS011;66387;53.440;10.390;2022-12-29T06:15:07;3.20;;;1.45;;
77324;SDS011;66387;53.440;10.390;2022-12-29T06:17:33;1.25;;;1.10;;
77324;SDS011;66387;53.440;10.390;2022-12-29T06:19:58;2.63;;;1.45;;
77324;SDS011;66387;53.440;10.390;2022-12-29T06:22:24;1.67;;;1.40;;
77324;SDS011;66387;53.440;10.390;2022-12-29T06:24:49;1.43;;;1.30;;
77324;SDS011;66387;53.440;10.390;2022-12-29T06:27:14;1.83;;;1.47;;
77324;SDS011;66387;53.440;10.390;2022-12-29T06:29:39;4.45;;;1.75;;
77324;SDS011;66387;53.440;10.390;2022-12-29T06:32:05;1.77;;;1.33;;
77324;SDS011;66387;53.440;10.390;2022-12-29T06:34:31;1.48;;;1.27;;
77324;SDS011;66387;53.440;10.390;2022-12-29T06:36:56;1.73;;;1.43;;
77324;SDS011;66387;53.440;10.390;2022-12-29T06:39:22;2.35;;;2.03;;
77324;SDS011;66387;53.440;10.390;2022-12-29T06:41:47;1.70;;;1.30;;
77324;SDS011;66387;53.440;10.390;2022-12-29T06:44:12;2.43;;;1.50;;
77324;SDS011;66387;53.440;10.390;2022-12-29T06:46:37;2.03;;;1.70;;
77324;SDS011;66387;53.440;10.390;2022-12-29T06:49:03;1.97;;;1.47;;
77324;SDS011;66387;53.440;10.390;2022-12-29T06:51:28;1.83;;;1.40;;
77324;SDS011;66387;53.440;10.390;2022-12-29T06:53:53;1.97;;;1.77;;
77324;SDS011;66387;53.440;10.390;2022-12-29T06:56:18;2.40;;;1.50;;
77324;SDS011;66387;53.440;10.390;2022-12-29T06:58:44;3.37;;;1.70;;
77324;SDS011;66387;53.440;10.390;2022-12-29T07:01:09;2.70;;;1.57;;
77324;SDS011;66387;53.440;10.390;2022-12-29T07:03:34;2.58;;;1.50;;
77324;SDS011;66387;53.440;10.390;2022-12-29T07:06:00;2.50;;;1.50;;
77324;SDS011;66387;53.440;10.390;2022-12-29T07:08:25;3.47;;;1.60;;
77324;SDS011;66387;53.440;10.390;2022-12-29T07:10:50;2.23;;;1.67;;
77324;SDS011;66387;53.440;10.390;2022-12-29T07:13:15;2.27;;;1.67;;
77324;SDS011;66387;53.440;10.390;2022-12-29T07:15:41;1.77;;;1.40;;
77324;SDS011;66387;53.440;10.390;2022-12-29T07:18:06;2.15;;;1.58;;
77324;SDS011;66387;53.440;10.390;2022-12-29T07:20:31;2.70;;;2.00;;
77324;SDS011;66387;53.440;10.390;2022-12-29T07:22:57;3.30;;;1.80;;
77324;SDS011;66387;53.440;10.390;2022-12-29T07:25:22;3.25;;;1.83;;
77324;SDS011;66387;53.440;10.390;2022-12-29T07:27:48;2.80;;;1.80;;
77324;SDS011;66387;53.440;10.390;2022-12-29T07:30:13;2.53;;;1.48;;
77324;SDS011;66387;53.440;10.390;2022-12-29T07:32:39;2.08;;;1.60;;
77324;SDS011;66387;53.440;10.390;2022-12-29T07:35:05;1.55;;;1.30;;
77324;SDS011;66387;53.440;10.390;2022-12-29T07:37:31;1.67;;;1.33;;
77324;SDS011;66387;53.440;10.390;2022-12-29T07:39:56;1.20;;;1.10;;
77324;SDS011;66387;53.440;10.390;2022-12-29T07:42:21;1.50;;;1.30;;
77324;SDS011;66387;53.440;10.390;2022-12-29T07:44:46;2.27;;;1.30;;
77324;SDS011;66387;53.440;10.390;2022-12-29T07:47:12;1.60;;;1.20;;
77324;SDS011;66387;53.440;10.390;2022-12-29T07:49:37;0.97;;;0.97;;
77324;SDS011;66387;53.440;10.390;2022-12-29T07:52:02;0.83;;;0.83;;
77324;SDS011;66387;53.440;10.390;2022-12-29T07:54:28;2.13;;;1.10;;
77324;SDS011;66387;53.440;10.390;2022-12-29T07:56:53;3.00;;;1.20;;
77324;SDS011;66387;53.440;10.390;2022-12-29T07:59:18;0.95;;;0.93;;
77324;SDS011;66387;53.440;10.390;2022-12-29T08:01:44;1.63;;;1.37;;
77324;SDS011;66387;53.440;10.390;2022-12-29T08:04:09;1.55;;;1.40;;
77324;SDS011;66387;53.440;10.390;2022-12-29T08:06:34;1.03;;;0.90;;
77324;SDS011;66387;53.440;10.390;2022-12-29T08:09:00;2.13;;;1.48;;
77324;SDS011;66387;53.440;10.390;2022-12-29T08:11:26;2.53;;;1.40;;
77324;SDS011;66387;53.440;10.390;2022-12-29T08:13:51;1.30;;;1.20;;
77324;SDS011;66387;53.440;10.390;2022-12-29T08:16:17;2.10;;;1.40;;
77324;SDS011;66387;53.440;10.390;2022-12-29T08:18:42;1.77;;;1.40;;
77324;SDS011;66387;53.440;10.390;2022-12-29T08:21:07;2.15;;;1.20;;
77324;SDS011;66387;53.440;10.390;2022-12-29T08:23:32;2.03;;;1.27;;
77324;SDS011;66387;53.440;10.390;2022-12-29T08:25:58;2.40;;;1.03;;
77324;SDS011;66387;53.440;10.390;2022-12-29T08:28:25;1.35;;;1.10;;
77324;SDS011;66387;53.440;10.390;2022-12-29T08:30:50;0.98;;;0.95;;
77324;SDS011;66387;53.440;10.390;2022-12-29T08:33:15;0.80;;;0.80;;
77324;SDS011;66387;53.440;10.390;2022-12-29T08:35:40;1.70;;;1.20;;
77324;SDS011;66387;53.440;10.390;2022-12-29T08:38:06;1.57;;;1.23;;
77324;SDS011;66387;53.440;10.390;2022-12-29T08:40:31;1.17;;;1.03;;
77324;SDS011;66387;53.440;10.390;2022-12-29T08:42:56;1.37;;;1.00;;
77324;SDS011;66387;53.440;10.390;2022-12-29T08:45:21;2.40;;;1.20;;
77324;SDS011;66387;53.440;10.390;2022-12-29T08:47:47;1.77;;;1.10;;
77324;SDS011;66387;53.440;10.390;2022-12-29T08:50:12;1.20;;;1.03;;
77324;SDS011;66387;53.440;10.390;2022-12-29T08:52:37;4.13;;;1.10;;
77324;SDS011;66387;53.440;10.390;2022-12-29T08:55:02;2.43;;;1.17;;
77324;SDS011;66387;53.440;10.390;2022-12-29T08:57:28;3.85;;;1.25;;
77324;SDS011;66387;53.440;10.390;2022-12-29T08:59:53;1.07;;;0.90;;
77324;SDS011;66387;53.440;10.390;2022-12-29T09:02:18;1.57;;;1.00;;
77324;SDS011;66387;53.440;10.390;2022-12-29T09:04:44;2.00;;;0.93;;
77324;SDS011;66387;53.440;10.390;2022-12-29T09:07:10;0.60;;;0.60;;
77324;SDS011;66387;53.440;10.390;2022-12-29T09:09:35;0.65;;;0.55;;
77324;SDS011;66387;53.440;10.390;2022-12-29T09:12:00;1.17;;;0.80;;
77324;SDS011;66387;53.440;10.390;2022-12-29T09:14:26;0.73;;;0.47;;
77324;SDS011;66387;53.440;10.390;2022-12-29T09:16:51;0.80;;;0.73;;
77324;SDS011;66387;53.440;10.390;2022-12-29T09:19:35;3.20;;;1.15;;
77324;SDS011;66387;53.440;10.390;2022-12-29T09:22:00;2.40;;;0.80;;
77324;SDS011;66387;53.440;10.390;2022-12-29T09:24:25;0.83;;;0.63;;
77324;SDS011;66387;53.440;10.390;2022-12-29T09:26:51;1.83;;;0.77;;
77324;SDS011;66387;53.440;10.390;2022-12-29T09:29:16;2.90;;;0.87;;
77324;SDS011;66387;53.440;10.390;2022-12-29T09:31:41;1.75;;;0.82;;
77324;SDS011;66387;53.440;10.390;2022-12-29T09:34:07;2.37;;;0.90;;
77324;SDS011;66387;53.440;10.390;2022-12-29T09:36:32;1.13;;;0.50;;
77324;SDS011;66387;53.440;10.390;2022-12-29T09:38:57;2.40;;;0.87;;
77324;SDS011;66387;53.440;10.390;2022-12-29T09:41:29;2.17;;;0.80;;
77324;SDS011;66387;53.440;10.390;2022-12-29T09:46:56;0.90;;;0.70;;
77324;SDS011;66387;53.440;10.390;2022-12-29T09:52:13;0.70;;;0.70;;
77324;SDS011;66387;53.440;10.390;2022-12-29T09:54:56;1.48;;;0.57;;
77324;SDS011;66387;53.440;10.390;2022-12-29T09:57:31;1.48;;;0.75;;
77324;SDS011;66387;53.440;10.390;2022-12-29T10:00:19;2.25;;;0.98;;
77324;SDS011;66387;53.440;10.390;2022-12-29T10:02:46;2.53;;;0.73;;
77324;SDS011;66387;53.440;10.390;2022-12-29T10:07:43;2.27;;;0.90;;
77324;SDS011;66387;53.440;10.390;2022-12-29T10:12:58;1.25;;;0.73;;
77324;SDS011;66387;53.440;10.390;2022-12-29T10:15:38;3.13;;;0.90;;
77324;SDS011;66387;53.440;10.390;2022-12-29T10:21:24;2.13;;;1.20;;
77324;SDS011;66387;53.440;10.390;2022-12-29T10:23:50;3.20;;;1.00;;
77324;SDS011;66387;53.440;10.390;2022-12-29T10:26:18;3.83;;;0.85;;
77324;SDS011;66387;53.440;10.390;2022-12-29T10:28:54;2.55;;;1.60;;
77324;SDS011;66387;53.440;10.390;2022-12-29T10:31:33;3.72;;;1.17;;
77324;SDS011;66387;53.440;10.390;2022-12-29T10:34:05;2.13;;;0.90;;
77324;SDS011;66387;53.440;10.390;2022-12-29T10:36:40;2.30;;;1.38;;
77324;SDS011;66387;53.440;10.390;2022-12-29T10:41:53;1.90;;;1.35;;
77324;SDS011;66387;53.440;10.390;2022-12-29T10:44:29;3.58;;;1.20;;
77324;SDS011;66387;53.440;10.390;2022-12-29T10:46:59;3.72;;;1.50;;
77324;SDS011;66387;53.440;10.390;2022-12-29T10:49:29;3.58;;;1.63;;
77324;SDS011;66387;53.440;10.390;2022-12-29T10:51:57;3.97;;;1.50;;
77324;SDS011;66387;53.440;10.390;2022-12-29T10:57:35;3.55;;;1.30;;
77324;SDS011;66387;53.440;10.390;2022-12-29T11:00:12;3.88;;;1.85;;
77324;SDS011;66387;53.440;10.390;2022-12-29T11:05:22;2.28;;;1.27;;
77324;SDS011;66387;53.440;10.390;2022-12-29T11:07:59;2.22;;;1.05;;
77324;SDS011;66387;53.440;10.390;2022-12-29T11:12:59;3.97;;;1.13;;
77324;SDS011;66387;53.440;10.390;2022-12-29T11:15:46;2.95;;;1.17;;
77324;SDS011;66387;53.440;10.390;2022-12-29T11:18:23;6.43;;;2.00;;
77324;SDS011;66387;53.440;10.390;2022-12-29T11:20:58;3.05;;;1.20;;
77324;SDS011;66387;53.440;10.390;2022-12-29T11:26:17;2.47;;;1.00;;
77324;SDS011;66387;53.440;10.390;2022-12-29T11:28:46;1.20;;;0.75;;
77324;SDS011;66387;53.440;10.390;2022-12-29T11:31:39;1.77;;;0.90;;
77324;SDS011;66387;53.440;10.390;2022-12-29T11:34:06;2.40;;;1.10;;
77324;SDS011;66387;53.440;10.390;2022-12-29T11:36:32;3.55;;;1.45;;
77324;SDS011;66387;53.440;10.390;2022-12-29T11:38:59;2.50;;;0.70;;
77324;SDS011;66387;53.440;10.390;2022-12-29T11:41:26;4.03;;;1.20;;
77324;SDS011;66387;53.440;10.390;2022-12-29T11:43:57;2.55;;;0.90;;
77324;SDS011;66387;53.440;10.390;2022-12-29T11:46:34;4.70;;;1.10;;
77324;SDS011;66387;53.440;10.390;2022-12-29T11:49:03;2.47;;;1.20;;
77324;SDS011;66387;53.440;10.390;2022-12-29T11:51:38;1.30;;;0.80;;
77324;SDS011;66387;53.440;10.390;2022-12-29T11:54:12;6.43;;;1.17;;
77324;SDS011;66387;53.440;10.390;2022-12-29T11:56:48;2.03;;;0.95;;
77324;SDS011;66387;53.440;10.390;2022-12-29T12:01:51;3.40;;;1.10;;
77324;SDS011;66387;53.440;10.390;2022-12-29T12:04:18;3.22;;;1.17;;
77324;SDS011;66387;53.440;10.390;2022-12-29T12:06:49;2.47;;;0.88;;
77324;SDS011;66387;53.440;10.390;2022-12-29T12:09:22;2.55;;;1.15;;
77324;SDS011;66387;53.440;10.390;2022-12-29T12:11:52;2.72;;;1.98;;
77324;SDS011;66387;53.440;10.390;2022-12-29T12:14:21;2.08;;;1.10;;
77324;SDS011;66387;53.440;10.390;2022-12-29T12:16:54;4.95;;;1.15;;
77324;SDS011;66387;53.440;10.390;2022-12-29T12:19:26;3.60;;;1.02;;
77324;SDS011;66387;53.440;10.390;2022-12-29T12:21:57;2.25;;;1.20;;
77324;SDS011;66387;53.440;10.390;2022-12-29T12:27:16;4.47;;;1.20;;
77324;SDS011;66387;53.440;10.390;2022-12-29T12:30:03;4.45;;;1.30;;
77324;SDS011;66387;53.440;10.390;2022-12-29T12:32:35;3.97;;;1.95;;
77324;SDS011;66387;53.440;10.390;2022-12-29T12:35:12;2.97;;;1.35;;
77324;SDS011;66387;53.440;10.390;2022-12-29T12:37:46;3.80;;;2.17;;
77324;SDS011;66387;53.440;10.390;2022-12-29T12:40:34;1.95;;;1.30;;
77324;SDS011;66387;53.440;10.390;2022-12-29T12:51:11;2.93;;;1.40;;
77324;SDS011;66387;53.440;10.390;2022-12-29T12:59:17;2.03;;;1.10;;
77324;SDS011;66387;53.440;10.390;2022-12-29T13:02:01;5.35;;;1.63;;
77324;SDS011;66387;53.440;10.390;2022-12-29T13:04:52;4.72;;;1.38;;
77324;SDS011;66387;53.440;10.390;2022-12-29T13:10:14;4.55;;;1.45;;
77324;SDS011;66387;53.440;10.390;2022-12-29T13:15:51;1.63;;;0.95;;
77324;SDS011;66387;53.440;10.390;2022-12-29T13:18:27;2.90;;;1.50;;
77324;SDS011;66387;53.440;10.390;2022-12-29T13:23:41;2.53;;;1.48;;
77324;SDS011;66387;53.440;10.390;2022-12-29T13:29:05;2.47;;;2.10;;
77324;SDS011;66387;53.440;10.390;2022-12-29T13:36:43;4.90;;;2.40;;
77324;SDS011;66387;53.440;10.390;2022-12-29T13:39:15;4.55;;;2.10;;
77324;SDS011;66387;53.440;10.390;2022-12-29T13:41:54;3.72;;;1.75;;
77324;SDS011;66387;53.440;10.390;2022-12-29T13:44:25;2.83;;;1.40;;
77324;SDS011;66387;53.440;10.390;2022-12-29T13:46:52;7.15;;;2.95;;
77324;SDS011;66387;53.440;10.390;2022-12-29T13:49:20;6.18;;;1.80;;
77324;SDS011;66387;53.440;10.390;2022-12-29T13:51:50;4.50;;;1.80;;
77324;SDS011;66387;53.440;10.390;2022-12-29T14:02:42;5.30;;;2.00;;
77324;SDS011;66387;53.440;10.390;2022-12-29T14:07:42;5.43;;;1.38;;
77324;SDS011;66387;53.440;10.390;2022-12-29T14:10:24;3.50;;;1.77;;
77324;SDS011;66387;53.440;10.390;2022-12-29T14:12:58;4.88;;;1.92;;
77324;SDS011;66387;53.440;10.390;2022-12-29T14:15:27;3.85;;;1.75;;
77324;SDS011;66387;53.440;10.390;2022-12-29T14:18:09;5.95;;;2.15;;
77324;SDS011;66387;53.440;10.390;2022-12-29T14:20:38;6.75;;;2.33;;
77324;SDS011;66387;53.440;10.390;2022-12-29T14:23:15;9.55;;;2.30;;
77324;SDS011;66387;53.440;10.390;2022-12-29T14:25:53;5.18;;;2.10;;
77324;SDS011;66387;53.440;10.390;2022-12-29T14:28:31;3.20;;;1.67;;
77324;SDS011;66387;53.440;10.390;2022-12-29T14:31:32;3.28;;;1.45;;
77324;SDS011;66387;53.440;10.390;2022-12-29T14:39:02;2.60;;;1.10;;
77324;SDS011;66387;53.440;10.390;2022-12-29T14:41:40;6.57;;;1.48;;
77324;SDS011;66387;53.440;10.390;2022-12-29T14:46:49;2.87;;;1.30;;
77324;SDS011;66387;53.440;10.390;2022-12-29T14:49:23;2.53;;;1.00;;
77324;SDS011;66387;53.440;10.390;2022-12-29T14:51:51;2.15;;;1.05;;
77324;SDS011;66387;53.440;10.390;2022-12-29T14:56:59;1.85;;;1.05;;
77324;SDS011;66387;53.440;10.390;2022-12-29T14:59:26;3.80;;;1.60;;
77324;SDS011;66387;53.440;10.390;2022-12-29T15:01:53;5.55;;;1.50;;
77324;SDS011;66387;53.440;10.390;2022-12-29T15:04:22;3.90;;;1.25;;
77324;SDS011;66387;53.440;10.390;2022-12-29T15:06:52;3.20;;;1.08;;
77324;SDS011;66387;53.440;10.390;2022-12-29T15:12:01;5.28;;;1.27;;
77324;SDS011;66387;53.440;10.390;2022-12-29T15:14:39;3.53;;;1.48;;
77324;SDS011;66387;53.440;10.390;2022-12-29T15:17:24;4.45;;;1.27;;
77324;SDS011;66387;53.440;10.390;2022-12-29T15:22:20;7.50;;;2.05;;
77324;SDS011;66387;53.440;10.390;2022-12-29T15:24:46;4.28;;;1.70;;
77324;SDS011;66387;53.440;10.390;2022-12-29T15:27:14;2.42;;;1.35;;
77324;SDS011;66387;53.440;10.390;2022-12-29T15:29:42;3.38;;;1.50;;
77324;SDS011;66387;53.440;10.390;2022-12-29T15:34:40;2.90;;;1.23;;
77324;SDS011;66387;53.440;10.390;2022-12-29T15:37:06;1.67;;;0.80;;
77324;SDS011;66387;53.440;10.390;2022-12-29T15:39:33;4.55;;;1.58;;
77324;SDS011;66387;53.440;10.390;2022-12-29T15:42:07;3.67;;;1.85;;
77324;SDS011;66387;53.440;10.390;2022-12-29T15:44:42;3.55;;;1.40;;
77324;SDS011;66387;53.440;10.390;2022-12-29T15:49:49;2.97;;;1.55;;
77324;SDS011;66387;53.440;10.390;2022-12-29T15:52:18;3.15;;;1.45;;
77324;SDS011;66387;53.440;10.390;2022-12-29T15:54:45;4.30;;;1.52;;
77324;SDS011;66387;53.440;10.390;2022-12-29T15:57:24;5.13;;;1.40;;
77324;SDS011;66387;53.440;10.390;2022-12-29T15:59:51;2.83;;;1.42;;
77324;SDS011;66387;53.440;10.390;2022-12-29T16:02:17;5.50;;;1.70;;
77324;SDS011;66387;53.440;10.390;2022-12-29T16:04:43;4.00;;;1.48;;
77324;SDS011;66387;53.440;10.390;2022-12-29T16:07:20;4.28;;;1.40;;
77324;SDS011;66387;53.440;10.390;2022-12-29T16:09:55;4.00;;;1.77;;
77324;SDS011;66387;53.440;10.390;2022-12-29T16:12:26;4.32;;;1.50;;
77324;SDS011;66387;53.440;10.390;2022-12-29T16:14:57;4.30;;;1.92;;
77324;SDS011;66387;53.440;10.390;2022-12-29T16:17:28;7.95;;;1.85;;
77324;SDS011;66387;53.440;10.390;2022-12-29T16:22:34;6.38;;;3.08;;
77324;SDS011;66387;53.440;10.390;2022-12-29T16:25:27;4.28;;;2.00;;
77324;SDS011;66387;53.440;10.390;2022-12-29T16:27:53;5.55;;;1.67;;
77324;SDS011;66387;53.440;10.390;2022-12-29T16:32:53;3.05;;;1.40;;
77324;SDS011;66387;53.440;10.390;2022-12-29T16:35:24;5.57;;;1.88;;
77324;SDS011;66387;53.440;10.390;2022-12-29T16:38:13;2.67;;;1.30;;
77324;SDS011;66387;53.440;10.390;2022-12-29T16:43:20;4.80;;;1.73;;
77324;SDS011;66387;53.440;10.390;2022-12-29T16:46:17;3.65;;;1.75;;
77324;SDS011;66387;53.440;10.390;2022-12-29T16:48:50;2.70;;;1.67;;
77324;SDS011;66387;53.440;10.390;2022-12-29T16:51:28;4.85;;;1.90;;
77324;SDS011;66387;53.440;10.390;2022-12-29T16:53:56;4.80;;;1.92;;
77324;SDS011;66387;53.440;10.390;2022-12-29T16:56:24;4.78;;;3.08;;
77324;SDS011;66387;53.440;10.390;2022-12-29T16:58:56;4.95;;;2.65;;
77324;SDS011;66387;53.440;10.390;2022-12-29T17:01:23;3.85;;;2.35;;
77324;SDS011;66387;53.440;10.390;2022-12-29T17:03:50;4.28;;;2.15;;